sensor_id;sensor_type;location;lat;lon;timestamp;P1;durP1;ratioP1;P2;durP2;ratioP2
31728;SDS011;18309;43.658;1.312;2022-08-20T00:00:58;5.82;;;2.90;;
31728;SDS011;18309;43.658;1.312;2022-08-20T00:03:26;6.38;;;2.70;;
31728;SDS011;18309;43.658;1.312;2022-08-20T00:05:59;7.25;;;2.90;;
31728;SDS011;18309;43.658;1.312;2022-08-20T00:10:54;6.65;;;2.72;;
31728;SDS011;18309;43.658;1.312;2022-08-20T00:13:22;7.25;;;3.10;;
31728;SDS011;18309;43.658;1.312;2022-08-20T00:15:50;8.27;;;3.00;;
31728;SDS011;18309;43.658;1.312;2022-08-20T00:18:16;4.97;;;2.20;;
31728;SDS011;18309;43.658;1.312;2022-08-20T00:20:44;3.67;;;2.72;;
31728;SDS011;18309;43.658;1.312;2022-08-20T00:23:12;5.50;;;2.83;;
31728;SDS011;18309;43.658;1.312;2022-08-20T00:25:38;5.47;;;2.78;;
31728;SDS011;18309;43.658;1.312;2022-08-20T00:28:05;7.00;;;2.70;;
31728;SDS011;18309;43.658;1.312;2022-08-20T00:30:31;5.45;;;2.40;;
31728;SDS011;18309;43.658;1.312;2022-08-20T00:33:00;6.00;;;2.70;;
31728;SDS011;18309;43.658;1.312;2022-08-20T00:35:32;7.57;;;2.85;;
31728;SDS011;18309;43.658;1.312;2022-08-20T00:38:00;4.13;;;3.25;;
31728;SDS011;18309;43.658;1.312;2022-08-20T00:40:29;4.72;;;2.83;;
31728;SDS011;18309;43.658;1.312;2022-08-20T00:42:59;12.30;;;2.83;;
31728;SDS011;18309;43.658;1.312;2022-08-20T00:45:27;5.00;;;3.00;;
31728;SDS011;18309;43.658;1.312;2022-08-20T00:47:55;4.53;;;2.58;;
31728;SDS011;18309;43.658;1.312;2022-08-20T00:50:23;12.45;;;2.83;;
31728;SDS011;18309;43.658;1.312;2022-08-20T00:52:57;8.63;;;2.60;;
31728;SDS011;18309;43.658;1.312;2022-08-20T00:55:23;5.40;;;2.60;;
31728;SDS011;18309;43.658;1.312;2022-08-20T00:57:52;3.67;;;2.60;;
31728;SDS011;18309;43.658;1.312;2022-08-20T01:00:25;9.45;;;2.80;;
31728;SDS011;18309;43.658;1.312;2022-08-20T01:02:53;7.30;;;2.70;;
31728;SDS011;18309;43.658;1.312;2022-08-20T01:05:20;7.50;;;2.92;;
31728;SDS011;18309;43.658;1.312;2022-08-20T01:07:47;6.72;;;3.08;;
31728;SDS011;18309;43.658;1.312;2022-08-20T01:10:17;9.55;;;3.05;;
31728;SDS011;18309;43.658;1.312;2022-08-20T01:12:45;8.87;;;2.80;;
31728;SDS011;18309;43.658;1.312;2022-08-20T01:15:13;7.22;;;2.92;;
31728;SDS011;18309;43.658;1.312;2022-08-20T01:17:48;4.60;;;2.78;;
31728;SDS011;18309;43.658;1.312;2022-08-20T01:31:10;5.35;;;2.83;;
31728;SDS011;18309;43.658;1.312;2022-08-20T01:33:38;8.90;;;2.55;;
31728;SDS011;18309;43.658;1.312;2022-08-20T01:36:05;6.50;;;2.78;;
31728;SDS011;18309;43.658;1.312;2022-08-20T01:38:32;4.32;;;2.95;;
31728;SDS011;18309;43.658;1.312;2022-08-20T01:43:55;5.78;;;2.80;;
31728;SDS011;18309;43.658;1.312;2022-08-20T01:46:26;3.03;;;2.15;;
31728;SDS011;18309;43.658;1.312;2022-08-20T01:48:54;8.13;;;2.97;;
31728;SDS011;18309;43.658;1.312;2022-08-20T01:51:23;5.35;;;2.90;;
31728;SDS011;18309;43.658;1.312;2022-08-20T01:53:54;6.22;;;2.72;;
31728;SDS011;18309;43.658;1.312;2022-08-20T01:56:24;7.25;;;2.60;;
31728;SDS011;18309;43.658;1.312;2022-08-20T01:58:53;5.15;;;2.80;;
31728;SDS011;18309;43.658;1.312;2022-08-20T02:01:31;3.75;;;2.60;;
31728;SDS011;18309;43.658;1.312;2022-08-20T02:03:59;5.68;;;2.85;;
31728;SDS011;18309;43.658;1.312;2022-08-20T02:06:27;4.72;;;2.75;;
31728;SDS011;18309;43.658;1.312;2022-08-20T02:08:56;8.40;;;3.13;;
31728;SDS011;18309;43.658;1.312;2022-08-20T02:11:24;6.65;;;2.88;;
31728;SDS011;18309;43.658;1.312;2022-08-20T02:13:51;4.85;;;2.85;;
31728;SDS011;18309;43.658;1.312;2022-08-20T02:16:21;7.63;;;2.70;;
31728;SDS011;18309;43.658;1.312;2022-08-20T02:18:49;4.97;;;2.72;;
31728;SDS011;18309;43.658;1.312;2022-08-20T02:23:45;3.65;;;2.85;;
31728;SDS011;18309;43.658;1.312;2022-08-20T02:26:10;4.50;;;2.80;;
31728;SDS011;18309;43.658;1.312;2022-08-20T02:28:36;3.92;;;2.67;;
31728;SDS011;18309;43.658;1.312;2022-08-20T02:31:03;5.60;;;2.40;;
31728;SDS011;18309;43.658;1.312;2022-08-20T02:33:32;4.32;;;2.88;;
31728;SDS011;18309;43.658;1.312;2022-08-20T02:35:58;8.13;;;2.50;;
31728;SDS011;18309;43.658;1.312;2022-08-20T02:38:24;6.65;;;2.75;;
31728;SDS011;18309;43.658;1.312;2022-08-20T02:40:50;6.60;;;3.08;;
31728;SDS011;18309;43.658;1.312;2022-08-20T02:43:16;9.48;;;2.58;;
31728;SDS011;18309;43.658;1.312;2022-08-20T02:45:43;6.80;;;3.03;;
31728;SDS011;18309;43.658;1.312;2022-08-20T02:48:13;3.13;;;2.47;;
31728;SDS011;18309;43.658;1.312;2022-08-20T02:50:45;9.13;;;2.88;;
31728;SDS011;18309;43.658;1.312;2022-08-20T02:53:15;6.93;;;3.15;;
31728;SDS011;18309;43.658;1.312;2022-08-20T02:55:41;5.82;;;3.10;;
31728;SDS011;18309;43.658;1.312;2022-08-20T02:58:07;5.28;;;3.28;;
31728;SDS011;18309;43.658;1.312;2022-08-20T03:00:33;5.35;;;3.22;;
31728;SDS011;18309;43.658;1.312;2022-08-20T03:02:59;9.15;;;3.45;;
31728;SDS011;18309;43.658;1.312;2022-08-20T03:05:25;7.82;;;4.00;;
31728;SDS011;18309;43.658;1.312;2022-08-20T03:07:51;7.97;;;3.35;;
31728;SDS011;18309;43.658;1.312;2022-08-20T03:10:21;10.32;;;3.40;;
31728;SDS011;18309;43.658;1.312;2022-08-20T03:12:48;6.00;;;3.50;;
31728;SDS011;18309;43.658;1.312;2022-08-20T03:15:14;8.40;;;4.35;;
31728;SDS011;18309;43.658;1.312;2022-08-20T03:17:40;8.90;;;3.67;;
31728;SDS011;18309;43.658;1.312;2022-08-20T03:20:06;7.85;;;3.35;;
31728;SDS011;18309;43.658;1.312;2022-08-20T03:22:33;5.82;;;3.17;;
31728;SDS011;18309;43.658;1.312;2022-08-20T03:24:59;9.15;;;3.83;;
31728;SDS011;18309;43.658;1.312;2022-08-20T03:27:25;8.85;;;3.50;;
31728;SDS011;18309;43.658;1.312;2022-08-20T03:29:50;6.47;;;3.90;;
31728;SDS011;18309;43.658;1.312;2022-08-20T03:32:16;13.68;;;3.20;;
31728;SDS011;18309;43.658;1.312;2022-08-20T03:34:42;5.95;;;3.13;;
31728;SDS011;18309;43.658;1.312;2022-08-20T03:37:07;8.70;;;3.40;;
31728;SDS011;18309;43.658;1.312;2022-08-20T03:39:35;5.32;;;3.42;;
31728;SDS011;18309;43.658;1.312;2022-08-20T03:42:02;9.25;;;3.55;;
31728;SDS011;18309;43.658;1.312;2022-08-20T03:44:28;5.15;;;3.08;;
31728;SDS011;18309;43.658;1.312;2022-08-20T03:46:54;7.75;;;3.58;;
31728;SDS011;18309;43.658;1.312;2022-08-20T03:49:19;10.23;;;3.28;;
31728;SDS011;18309;43.658;1.312;2022-08-20T03:51:48;6.38;;;3.55;;
31728;SDS011;18309;43.658;1.312;2022-08-20T03:54:14;6.20;;;3.47;;
31728;SDS011;18309;43.658;1.312;2022-08-20T03:56:40;6.88;;;3.53;;
31728;SDS011;18309;43.658;1.312;2022-08-20T03:59:06;7.00;;;3.75;;
31728;SDS011;18309;43.658;1.312;2022-08-20T04:01:32;6.43;;;4.05;;
31728;SDS011;18309;43.658;1.312;2022-08-20T04:03:58;5.45;;;3.17;;
31728;SDS011;18309;43.658;1.312;2022-08-20T04:06:24;8.32;;;3.28;;
31728;SDS011;18309;43.658;1.312;2022-08-20T04:08:53;5.57;;;3.05;;
31728;SDS011;18309;43.658;1.312;2022-08-20T04:11:19;9.82;;;3.55;;
31728;SDS011;18309;43.658;1.312;2022-08-20T04:13:45;6.05;;;3.15;;
31728;SDS011;18309;43.658;1.312;2022-08-20T04:16:10;6.18;;;3.30;;
31728;SDS011;18309;43.658;1.312;2022-08-20T04:18:36;8.05;;;3.40;;
31728;SDS011;18309;43.658;1.312;2022-08-20T04:21:02;11.88;;;3.78;;
31728;SDS011;18309;43.658;1.312;2022-08-20T04:23:29;7.47;;;3.42;;
31728;SDS011;18309;43.658;1.312;2022-08-20T04:25:56;6.22;;;3.55;;
31728;SDS011;18309;43.658;1.312;2022-08-20T04:28:22;7.68;;;4.45;;
31728;SDS011;18309;43.658;1.312;2022-08-20T04:30:51;6.07;;;3.55;;
31728;SDS011;18309;43.658;1.312;2022-08-20T04:33:18;10.38;;;3.83;;
31728;SDS011;18309;43.658;1.312;2022-08-20T04:35:44;6.05;;;3.17;;
31728;SDS011;18309;43.658;1.312;2022-08-20T04:38:12;6.07;;;3.70;;
31728;SDS011;18309;43.658;1.312;2022-08-20T04:40:39;7.25;;;3.35;;
31728;SDS011;18309;43.658;1.312;2022-08-20T04:43:18;9.30;;;3.78;;
31728;SDS011;18309;43.658;1.312;2022-08-20T04:45:46;7.57;;;3.95;;
31728;SDS011;18309;43.658;1.312;2022-08-20T04:48:12;9.95;;;3.63;;
31728;SDS011;18309;43.658;1.312;2022-08-20T04:50:39;13.48;;;3.58;;
31728;SDS011;18309;43.658;1.312;2022-08-20T04:53:08;8.90;;;3.28;;
31728;SDS011;18309;43.658;1.312;2022-08-20T04:55:36;6.60;;;3.65;;
31728;SDS011;18309;43.658;1.312;2022-08-20T04:58:07;9.82;;;3.83;;
31728;SDS011;18309;43.658;1.312;2022-08-20T05:00:36;5.30;;;3.38;;
31728;SDS011;18309;43.658;1.312;2022-08-20T05:03:02;8.02;;;3.67;;
31728;SDS011;18309;43.658;1.312;2022-08-20T05:05:30;6.55;;;3.72;;
31728;SDS011;18309;43.658;1.312;2022-08-20T05:07:59;6.28;;;3.65;;
31728;SDS011;18309;43.658;1.312;2022-08-20T05:10:26;8.52;;;3.95;;
31728;SDS011;18309;43.658;1.312;2022-08-20T05:12:52;6.05;;;3.67;;
31728;SDS011;18309;43.658;1.312;2022-08-20T05:15:18;8.63;;;3.50;;
31728;SDS011;18309;43.658;1.312;2022-08-20T05:17:44;6.30;;;3.63;;
31728;SDS011;18309;43.658;1.312;2022-08-20T05:20:11;6.75;;;3.65;;
31728;SDS011;18309;43.658;1.312;2022-08-20T05:22:41;9.68;;;3.92;;
31728;SDS011;18309;43.658;1.312;2022-08-20T05:25:07;6.68;;;4.30;;
31728;SDS011;18309;43.658;1.312;2022-08-20T05:27:33;8.73;;;3.42;;
31728;SDS011;18309;43.658;1.312;2022-08-20T05:30:00;8.75;;;4.03;;
31728;SDS011;18309;43.658;1.312;2022-08-20T05:32:31;8.50;;;3.67;;
31728;SDS011;18309;43.658;1.312;2022-08-20T05:34:57;7.03;;;3.28;;
31728;SDS011;18309;43.658;1.312;2022-08-20T05:37:24;7.82;;;3.45;;
31728;SDS011;18309;43.658;1.312;2022-08-20T05:39:50;5.53;;;3.58;;
31728;SDS011;18309;43.658;1.312;2022-08-20T05:42:16;6.50;;;3.25;;
31728;SDS011;18309;43.658;1.312;2022-08-20T05:44:42;9.88;;;3.80;;
31728;SDS011;18309;43.658;1.312;2022-08-20T05:47:11;6.63;;;3.60;;
31728;SDS011;18309;43.658;1.312;2022-08-20T05:49:37;8.07;;;3.90;;
31728;SDS011;18309;43.658;1.312;2022-08-20T05:52:04;6.13;;;3.58;;
31728;SDS011;18309;43.658;1.312;2022-08-20T05:54:30;9.35;;;4.30;;
31728;SDS011;18309;43.658;1.312;2022-08-20T05:56:56;8.80;;;3.72;;
31728;SDS011;18309;43.658;1.312;2022-08-20T05:59:23;7.32;;;3.78;;
31728;SDS011;18309;43.658;1.312;2022-08-20T06:01:49;8.32;;;3.42;;
31728;SDS011;18309;43.658;1.312;2022-08-20T06:04:15;7.78;;;3.92;;
31728;SDS011;18309;43.658;1.312;2022-08-20T06:07:05;4.68;;;3.20;;
31728;SDS011;18309;43.658;1.312;2022-08-20T06:09:31;7.25;;;3.63;;
31728;SDS011;18309;43.658;1.312;2022-08-20T06:11:58;9.52;;;3.67;;
31728;SDS011;18309;43.658;1.312;2022-08-20T06:16:53;10.98;;;3.72;;
31728;SDS011;18309;43.658;1.312;2022-08-20T06:19:19;7.70;;;3.22;;
31728;SDS011;18309;43.658;1.312;2022-08-20T06:21:44;5.50;;;3.38;;
31728;SDS011;18309;43.658;1.312;2022-08-20T06:24:10;9.57;;;3.22;;
31728;SDS011;18309;43.658;1.312;2022-08-20T06:26:36;6.65;;;2.67;;
31728;SDS011;18309;43.658;1.312;2022-08-20T06:29:02;5.40;;;3.60;;
31728;SDS011;18309;43.658;1.312;2022-08-20T06:31:30;6.18;;;3.10;;
31728;SDS011;18309;43.658;1.312;2022-08-20T06:33:56;3.92;;;2.83;;
31728;SDS011;18309;43.658;1.312;2022-08-20T06:36:22;6.90;;;2.90;;
31728;SDS011;18309;43.658;1.312;2022-08-20T06:38:48;8.25;;;3.67;;
31728;SDS011;18309;43.658;1.312;2022-08-20T06:41:14;5.13;;;2.65;;
31728;SDS011;18309;43.658;1.312;2022-08-20T06:43:41;7.68;;;3.25;;
31728;SDS011;18309;43.658;1.312;2022-08-20T06:46:07;4.78;;;2.58;;
31728;SDS011;18309;43.658;1.312;2022-08-20T06:48:32;5.50;;;2.70;;
31728;SDS011;18309;43.658;1.312;2022-08-20T06:50:58;7.63;;;2.75;;
31728;SDS011;18309;43.658;1.312;2022-08-20T06:53:24;5.97;;;2.95;;
31728;SDS011;18309;43.658;1.312;2022-08-20T06:55:51;6.25;;;3.40;;
31728;SDS011;18309;43.658;1.312;2022-08-20T06:58:18;5.18;;;2.50;;
31728;SDS011;18309;43.658;1.312;2022-08-20T07:00:46;4.53;;;2.55;;
31728;SDS011;18309;43.658;1.312;2022-08-20T07:03:13;4.47;;;2.58;;
31728;SDS011;18309;43.658;1.312;2022-08-20T07:05:40;6.50;;;2.35;;
31728;SDS011;18309;43.658;1.312;2022-08-20T07:08:10;8.20;;;3.10;;
31728;SDS011;18309;43.658;1.312;2022-08-20T07:10:39;3.80;;;2.25;;
31728;SDS011;18309;43.658;1.312;2022-08-20T07:13:07;4.90;;;2.53;;
31728;SDS011;18309;43.658;1.312;2022-08-20T07:15:33;6.60;;;2.30;;
31728;SDS011;18309;43.658;1.312;2022-08-20T07:18:00;6.45;;;2.58;;
31728;SDS011;18309;43.658;1.312;2022-08-20T07:20:29;2.97;;;2.08;;
31728;SDS011;18309;43.658;1.312;2022-08-20T07:22:56;4.55;;;1.70;;
31728;SDS011;18309;43.658;1.312;2022-08-20T07:25:22;5.60;;;2.08;;
31728;SDS011;18309;43.658;1.312;2022-08-20T07:27:48;2.63;;;1.73;;
31728;SDS011;18309;43.658;1.312;2022-08-20T07:30:19;3.30;;;1.63;;
31728;SDS011;18309;43.658;1.312;2022-08-20T07:33:05;2.03;;;1.70;;
31728;SDS011;18309;43.658;1.312;2022-08-20T07:35:31;6.68;;;1.70;;
31728;SDS011;18309;43.658;1.312;2022-08-20T07:37:57;6.30;;;1.60;;
31728;SDS011;18309;43.658;1.312;2022-08-20T07:40:24;5.78;;;1.27;;
31728;SDS011;18309;43.658;1.312;2022-08-20T07:42:52;9.02;;;1.70;;
31728;SDS011;18309;43.658;1.312;2022-08-20T07:45:19;2.42;;;1.45;;
31728;SDS011;18309;43.658;1.312;2022-08-20T07:47:45;3.60;;;1.52;;
31728;SDS011;18309;43.658;1.312;2022-08-20T07:50:13;5.03;;;1.70;;
31728;SDS011;18309;43.658;1.312;2022-08-20T07:52:43;5.60;;;2.63;;
31728;SDS011;18309;43.658;1.312;2022-08-20T07:55:10;3.60;;;1.75;;
31728;SDS011;18309;43.658;1.312;2022-08-20T07:57:39;2.17;;;1.10;;
31728;SDS011;18309;43.658;1.312;2022-08-20T08:00:07;3.03;;;1.27;;
31728;SDS011;18309;43.658;1.312;2022-08-20T08:02:35;4.88;;;1.30;;
31728;SDS011;18309;43.658;1.312;2022-08-20T08:05:00;3.35;;;1.48;;
31728;SDS011;18309;43.658;1.312;2022-08-20T08:07:27;2.20;;;1.08;;
31728;SDS011;18309;43.658;1.312;2022-08-20T08:09:53;1.80;;;1.17;;
31728;SDS011;18309;43.658;1.312;2022-08-20T08:12:20;2.42;;;1.23;;
31728;SDS011;18309;43.658;1.312;2022-08-20T08:14:47;3.60;;;0.90;;
31728;SDS011;18309;43.658;1.312;2022-08-20T08:17:15;2.70;;;1.20;;
31728;SDS011;18309;43.658;1.312;2022-08-20T08:19:43;2.38;;;1.23;;
31728;SDS011;18309;43.658;1.312;2022-08-20T08:22:13;2.45;;;1.08;;
31728;SDS011;18309;43.658;1.312;2022-08-20T08:24:41;2.45;;;1.10;;
31728;SDS011;18309;43.658;1.312;2022-08-20T08:27:09;2.00;;;1.08;;
31728;SDS011;18309;43.658;1.312;2022-08-20T08:29:35;1.83;;;0.85;;
31728;SDS011;18309;43.658;1.312;2022-08-20T08:32:04;1.70;;;0.80;;
31728;SDS011;18309;43.658;1.312;2022-08-20T08:34:31;2.93;;;1.37;;
31728;SDS011;18309;43.658;1.312;2022-08-20T08:36:59;4.20;;;1.27;;
31728;SDS011;18309;43.658;1.312;2022-08-20T08:39:27;2.78;;;1.00;;
31728;SDS011;18309;43.658;1.312;2022-08-20T08:41:56;1.60;;;0.80;;
31728;SDS011;18309;43.658;1.312;2022-08-20T08:44:34;2.65;;;1.20;;
31728;SDS011;18309;43.658;1.312;2022-08-20T08:47:06;3.78;;;1.10;;
31728;SDS011;18309;43.658;1.312;2022-08-20T08:49:42;3.00;;;1.60;;
31728;SDS011;18309;43.658;1.312;2022-08-20T08:52:11;2.13;;;1.20;;
31728;SDS011;18309;43.658;1.312;2022-08-20T08:54:48;2.28;;;1.10;;
31728;SDS011;18309;43.658;1.312;2022-08-20T08:57:16;1.58;;;0.80;;
31728;SDS011;18309;43.658;1.312;2022-08-20T09:00:05;1.92;;;1.00;;
31728;SDS011;18309;43.658;1.312;2022-08-20T09:02:34;2.40;;;0.88;;
31728;SDS011;18309;43.658;1.312;2022-08-20T09:05:03;2.58;;;0.93;;
31728;SDS011;18309;43.658;1.312;2022-08-20T09:07:44;4.25;;;1.15;;
31728;SDS011;18309;43.658;1.312;2022-08-20T09:10:15;2.13;;;1.00;;
31728;SDS011;18309;43.658;1.312;2022-08-20T09:12:41;1.42;;;0.80;;
31728;SDS011;18309;43.658;1.312;2022-08-20T09:15:08;2.17;;;1.00;;
31728;SDS011;18309;43.658;1.312;2022-08-20T09:17:35;2.00;;;0.80;;
31728;SDS011;18309;43.658;1.312;2022-08-20T09:20:01;1.58;;;0.80;;
31728;SDS011;18309;43.658;1.312;2022-08-20T09:22:26;2.47;;;0.98;;
31728;SDS011;18309;43.658;1.312;2022-08-20T09:24:52;1.88;;;0.90;;
31728;SDS011;18309;43.658;1.312;2022-08-20T09:27:18;4.78;;;0.60;;
31728;SDS011;18309;43.658;1.312;2022-08-20T09:29:44;0.95;;;0.70;;
31728;SDS011;18309;43.658;1.312;2022-08-20T09:32:12;3.15;;;0.57;;
31728;SDS011;18309;43.658;1.312;2022-08-20T09:34:42;1.35;;;0.82;;
31728;SDS011;18309;43.658;1.312;2022-08-20T09:37:10;4.03;;;0.55;;
31728;SDS011;18309;43.658;1.312;2022-08-20T09:39:38;4.00;;;0.50;;
31728;SDS011;18309;43.658;1.312;2022-08-20T09:42:07;3.53;;;0.52;;
31728;SDS011;18309;43.658;1.312;2022-08-20T09:44:36;1.65;;;0.50;;
31728;SDS011;18309;43.658;1.312;2022-08-20T09:47:03;2.22;;;0.70;;
31728;SDS011;18309;43.658;1.312;2022-08-20T09:49:28;2.75;;;0.57;;
31728;SDS011;18309;43.658;1.312;2022-08-20T09:51:54;1.40;;;0.50;;
31728;SDS011;18309;43.658;1.312;2022-08-20T09:54:21;1.10;;;0.45;;
31728;SDS011;18309;43.658;1.312;2022-08-20T09:56:47;2.55;;;0.50;;
31728;SDS011;18309;43.658;1.312;2022-08-20T09:59:13;1.50;;;0.50;;
31728;SDS011;18309;43.658;1.312;2022-08-20T10:01:39;1.52;;;0.55;;
31728;SDS011;18309;43.658;1.312;2022-08-20T10:04:05;2.47;;;1.00;;
31728;SDS011;18309;43.658;1.312;2022-08-20T10:06:32;1.67;;;0.60;;
31728;SDS011;18309;43.658;1.312;2022-08-20T10:09:04;0.68;;;0.50;;
31728;SDS011;18309;43.658;1.312;2022-08-20T10:11:30;1.13;;;0.35;;
31728;SDS011;18309;43.658;1.312;2022-08-20T10:13:56;0.88;;;0.40;;
31728;SDS011;18309;43.658;1.312;2022-08-20T10:16:28;0.93;;;0.50;;
31728;SDS011;18309;43.658;1.312;2022-08-20T10:18:54;1.48;;;0.70;;
31728;SDS011;18309;43.658;1.312;2022-08-20T10:21:20;1.35;;;0.63;;
31728;SDS011;18309;43.658;1.312;2022-08-20T10:23:45;2.67;;;0.90;;
31728;SDS011;18309;43.658;1.312;2022-08-20T10:26:11;1.48;;;0.60;;
31728;SDS011;18309;43.658;1.312;2022-08-20T10:28:39;0.68;;;0.63;;
31728;SDS011;18309;43.658;1.312;2022-08-20T10:31:08;1.27;;;0.60;;
31728;SDS011;18309;43.658;1.312;2022-08-20T10:33:35;2.20;;;0.73;;
31728;SDS011;18309;43.658;1.312;2022-08-20T10:36:14;5.82;;;0.65;;
31728;SDS011;18309;43.658;1.312;2022-08-20T10:38:41;0.77;;;0.50;;
31728;SDS011;18309;43.658;1.312;2022-08-20T10:41:08;3.72;;;0.80;;
31728;SDS011;18309;43.658;1.312;2022-08-20T10:43:34;3.08;;;0.77;;
31728;SDS011;18309;43.658;1.312;2022-08-20T10:45:59;2.92;;;0.45;;
31728;SDS011;18309;43.658;1.312;2022-08-20T10:48:26;6.13;;;0.60;;
31728;SDS011;18309;43.658;1.312;2022-08-20T10:50:52;2.45;;;0.80;;
31728;SDS011;18309;43.658;1.312;2022-08-20T10:53:18;1.27;;;0.55;;
31728;SDS011;18309;43.658;1.312;2022-08-20T10:55:44;1.80;;;0.50;;
31728;SDS011;18309;43.658;1.312;2022-08-20T10:58:10;2.63;;;0.80;;
31728;SDS011;18309;43.658;1.312;2022-08-20T11:00:37;1.75;;;1.00;;
31728;SDS011;18309;43.658;1.312;2022-08-20T11:03:03;4.50;;;0.80;;
31728;SDS011;18309;43.658;1.312;2022-08-20T11:05:29;3.28;;;0.80;;
31728;SDS011;18309;43.658;1.312;2022-08-20T11:07:55;1.33;;;0.52;;
31728;SDS011;18309;43.658;1.312;2022-08-20T11:10:22;3.28;;;0.70;;
31728;SDS011;18309;43.658;1.312;2022-08-20T11:12:49;4.25;;;0.50;;
31728;SDS011;18309;43.658;1.312;2022-08-20T11:15:15;1.02;;;0.50;;
31728;SDS011;18309;43.658;1.312;2022-08-20T11:17:41;4.82;;;0.60;;
31728;SDS011;18309;43.658;1.312;2022-08-20T11:20:09;4.38;;;1.00;;
31728;SDS011;18309;43.658;1.312;2022-08-20T11:22:36;1.50;;;0.70;;
31728;SDS011;18309;43.658;1.312;2022-08-20T11:25:02;3.63;;;0.70;;
31728;SDS011;18309;43.658;1.312;2022-08-20T11:27:30;2.47;;;0.50;;
31728;SDS011;18309;43.658;1.312;2022-08-20T11:30:00;3.47;;;0.60;;
31728;SDS011;18309;43.658;1.312;2022-08-20T11:32:26;3.05;;;1.65;;
31728;SDS011;18309;43.658;1.312;2022-08-20T11:34:52;8.35;;;1.00;;
31728;SDS011;18309;43.658;1.312;2022-08-20T11:37:18;1.90;;;0.52;;
31728;SDS011;18309;43.658;1.312;2022-08-20T11:39:46;1.83;;;0.50;;
31728;SDS011;18309;43.658;1.312;2022-08-20T11:42:12;2.00;;;0.65;;
31728;SDS011;18309;43.658;1.312;2022-08-20T11:44:38;1.85;;;0.50;;
31728;SDS011;18309;43.658;1.312;2022-08-20T11:47:04;2.10;;;0.40;;
31728;SDS011;18309;43.658;1.312;2022-08-20T11:49:32;1.73;;;0.50;;
31728;SDS011;18309;43.658;1.312;2022-08-20T11:51:59;0.55;;;0.30;;
31728;SDS011;18309;43.658;1.312;2022-08-20T11:54:25;1.65;;;0.50;;
31728;SDS011;18309;43.658;1.312;2022-08-20T11:56:53;0.30;;;0.30;;
31728;SDS011;18309;43.658;1.312;2022-08-20T11:59:21;1.63;;;0.50;;
31728;SDS011;18309;43.658;1.312;2022-08-20T12:01:48;1.08;;;0.40;;
31728;SDS011;18309;43.658;1.312;2022-08-20T12:04:14;3.47;;;0.80;;
31728;SDS011;18309;43.658;1.312;2022-08-20T12:06:39;2.65;;;0.60;;
31728;SDS011;18309;43.658;1.312;2022-08-20T12:09:05;3.95;;;0.80;;
31728;SDS011;18309;43.658;1.312;2022-08-20T12:11:31;1.17;;;0.70;;
31728;SDS011;18309;43.658;1.312;2022-08-20T12:13:56;2.55;;;0.60;;
31728;SDS011;18309;43.658;1.312;2022-08-20T12:16:22;1.75;;;0.50;;
31728;SDS011;18309;43.658;1.312;2022-08-20T12:18:48;2.55;;;0.90;;
31728;SDS011;18309;43.658;1.312;2022-08-20T12:21:13;2.63;;;0.80;;
31728;SDS011;18309;43.658;1.312;2022-08-20T12:23:39;5.00;;;1.45;;
31728;SDS011;18309;43.658;1.312;2022-08-20T12:26:05;2.13;;;0.80;;
31728;SDS011;18309;43.658;1.312;2022-08-20T12:28:31;2.05;;;0.80;;
31728;SDS011;18309;43.658;1.312;2022-08-20T12:30:57;1.33;;;0.60;;
31728;SDS011;18309;43.658;1.312;2022-08-20T12:33:23;0.30;;;0.30;;
31728;SDS011;18309;43.658;1.312;2022-08-20T12:35:49;1.00;;;0.38;;
31728;SDS011;18309;43.658;1.312;2022-08-20T12:38:15;0.40;;;0.30;;
31728;SDS011;18309;43.658;1.312;2022-08-20T12:40:41;3.40;;;0.55;;
31728;SDS011;18309;43.658;1.312;2022-08-20T12:43:07;1.77;;;1.08;;
31728;SDS011;18309;43.658;1.312;2022-08-20T12:45:33;2.30;;;0.55;;
31728;SDS011;18309;43.658;1.312;2022-08-20T12:48:00;1.20;;;0.50;;
31728;SDS011;18309;43.658;1.312;2022-08-20T12:50:29;3.05;;;0.50;;
31728;SDS011;18309;43.658;1.312;2022-08-20T12:52:56;1.55;;;0.50;;
31728;SDS011;18309;43.658;1.312;2022-08-20T12:55:22;1.35;;;0.32;;
31728;SDS011;18309;43.658;1.312;2022-08-20T12:57:49;0.93;;;0.70;;
31728;SDS011;18309;43.658;1.312;2022-08-20T13:00:18;2.13;;;1.10;;
31728;SDS011;18309;43.658;1.312;2022-08-20T13:02:48;2.42;;;0.82;;
31728;SDS011;18309;43.658;1.312;2022-08-20T13:05:14;2.50;;;0.70;;
31728;SDS011;18309;43.658;1.312;2022-08-20T13:07:41;3.80;;;0.85;;
31728;SDS011;18309;43.658;1.312;2022-08-20T13:10:10;2.42;;;0.55;;
31728;SDS011;18309;43.658;1.312;2022-08-20T13:12:38;1.23;;;0.52;;
31728;SDS011;18309;43.658;1.312;2022-08-20T13:15:04;2.05;;;0.40;;
31728;SDS011;18309;43.658;1.312;2022-08-20T13:17:30;2.53;;;0.70;;
31728;SDS011;18309;43.658;1.312;2022-08-20T13:19:56;1.48;;;0.20;;
31728;SDS011;18309;43.658;1.312;2022-08-20T13:22:22;1.45;;;0.30;;
31728;SDS011;18309;43.658;1.312;2022-08-20T13:24:47;0.98;;;0.30;;
31728;SDS011;18309;43.658;1.312;2022-08-20T13:27:14;0.40;;;0.22;;
31728;SDS011;18309;43.658;1.312;2022-08-20T13:29:49;1.38;;;0.30;;
31728;SDS011;18309;43.658;1.312;2022-08-20T13:32:17;0.55;;;0.20;;
31728;SDS011;18309;43.658;1.312;2022-08-20T13:34:43;0.50;;;0.43;;
31728;SDS011;18309;43.658;1.312;2022-08-20T13:37:14;3.55;;;1.50;;
31728;SDS011;18309;43.658;1.312;2022-08-20T13:39:42;1.92;;;0.90;;
31728;SDS011;18309;43.658;1.312;2022-08-20T13:42:08;0.60;;;0.50;;
31728;SDS011;18309;43.658;1.312;2022-08-20T13:44:35;1.08;;;0.60;;
31728;SDS011;18309;43.658;1.312;2022-08-20T13:49:42;0.98;;;0.55;;
31728;SDS011;18309;43.658;1.312;2022-08-20T13:52:08;1.27;;;0.38;;
31728;SDS011;18309;43.658;1.312;2022-08-20T13:54:34;2.15;;;0.50;;
31728;SDS011;18309;43.658;1.312;2022-08-20T13:57:33;3.05;;;0.30;;
31728;SDS011;18309;43.658;1.312;2022-08-20T13:59:53;0.98;;;0.28;;
31728;SDS011;18309;43.658;1.312;2022-08-20T14:02:21;1.15;;;0.25;;
31728;SDS011;18309;43.658;1.312;2022-08-20T14:04:48;1.20;;;0.35;;
31728;SDS011;18309;43.658;1.312;2022-08-20T14:07:19;7.07;;;0.40;;
31728;SDS011;18309;43.658;1.312;2022-08-20T14:09:53;0.98;;;0.30;;
31728;SDS011;18309;43.658;1.312;2022-08-20T14:12:21;3.38;;;0.80;;
31728;SDS011;18309;43.658;1.312;2022-08-20T14:14:48;1.17;;;0.50;;
31728;SDS011;18309;43.658;1.312;2022-08-20T14:17:19;1.77;;;0.40;;
31728;SDS011;18309;43.658;1.312;2022-08-20T14:19:49;1.70;;;0.70;;
31728;SDS011;18309;43.658;1.312;2022-08-20T14:22:16;1.05;;;0.40;;
31728;SDS011;18309;43.658;1.312;2022-08-20T14:24:45;3.75;;;0.65;;
31728;SDS011;18309;43.658;1.312;2022-08-20T14:27:12;0.85;;;0.40;;
31728;SDS011;18309;43.658;1.312;2022-08-20T14:29:41;0.60;;;0.30;;
31728;SDS011;18309;43.658;1.312;2022-08-20T14:32:08;1.60;;;0.35;;
31728;SDS011;18309;43.658;1.312;2022-08-20T14:34:34;2.92;;;0.50;;
31728;SDS011;18309;43.658;1.312;2022-08-20T14:39:43;4.72;;;0.65;;
31728;SDS011;18309;43.658;1.312;2022-08-20T14:42:10;1.67;;;0.30;;
31728;SDS011;18309;43.658;1.312;2022-08-20T14:44:36;0.20;;;0.20;;
31728;SDS011;18309;43.658;1.312;2022-08-20T14:47:10;1.38;;;0.40;;
31728;SDS011;18309;43.658;1.312;2022-08-20T14:49:48;0.77;;;0.50;;
31728;SDS011;18309;43.658;1.312;2022-08-20T14:52:16;5.38;;;0.55;;
31728;SDS011;18309;43.658;1.312;2022-08-20T14:54:43;2.97;;;0.40;;
31728;SDS011;18309;43.658;1.312;2022-08-20T14:57:09;0.38;;;0.38;;
31728;SDS011;18309;43.658;1.312;2022-08-20T14:59:36;2.33;;;0.90;;
31728;SDS011;18309;43.658;1.312;2022-08-20T15:02:05;3.17;;;1.48;;
31728;SDS011;18309;43.658;1.312;2022-08-20T15:04:33;2.22;;;1.00;;
31728;SDS011;18309;43.658;1.312;2022-08-20T15:06:59;1.27;;;0.55;;
31728;SDS011;18309;43.658;1.312;2022-08-20T15:09:28;1.08;;;0.63;;
31728;SDS011;18309;43.658;1.312;2022-08-20T15:11:55;0.63;;;0.30;;
31728;SDS011;18309;43.658;1.312;2022-08-20T15:14:21;0.32;;;0.30;;
31728;SDS011;18309;43.658;1.312;2022-08-20T15:16:47;0.28;;;0.20;;